Time;durP1;ratioP1;P1;durP2;ratioP2;P2;SDS_P1;SDS_P2;PMS_P1;PMS_P2;Temp;Humidity;BMP_temperature;BMP_pressure;BME280_temperature;BME280_humidity;BME280_pressure;Samples;Min_cycle;Max_cycle;Signal;HPM_P1;HPM_P2
2021/03/03 00:00:15;;;;;;;36.95;23.88;;;;;;;2.42;86.90;97281.41;1303872;22;19999;-78
2021/03/03 00:00:46;;;;;;;34.97;22.30;;;;;;;2.32;86.78;97287.66;1310242;22;20077;-78
2021/03/03 00:01:16;;;;;;;35.10;23.85;;;;;;;2.36;86.75;97293.38;1303989;22;20066;-74
2021/03/03 00:01:47;;;;;;;33.60;22.67;;;;;;;2.42;86.64;97291.88;1303876;22;20322;-75
2021/03/03 00:02:17;;;;;;;36.05;23.45;;;;;;;2.43;86.43;97285.66;1304544;22;20009;-75
2021/03/03 00:02:47;;;;;;;32.35;22.95;;;;;;;2.38;86.77;97280.94;1304565;22;19999;-74
2021/03/03 00:03:18;;;;;;;32.58;21.88;;;;;;;2.32;86.77;97281.59;1304047;22;19999;-75
2021/03/03 00:03:48;;;;;;;35.55;22.85;;;;;;;2.31;86.75;97283.41;1304277;22;19999;-76
2021/03/03 00:04:19;;;;;;;36.55;23.17;;;;;;;2.28;86.90;97283.75;1304044;22;20052;-76
2021/03/03 00:04:49;;;;;;;35.08;23.77;;;;;;;2.33;88.21;97285.84;1310702;22;20003;-74
2021/03/03 00:05:20;;;;;;;31.05;22.20;;;;;;;2.33;88.11;97280.63;1310763;22;20045;-74
2021/03/03 00:05:50;;;;;;;34.63;22.73;;;;;;;2.37;87.11;97288.94;1310824;22;20045;-74
2021/03/03 00:06:20;;;;;;;32.88;21.75;;;;;;;2.36;87.17;97288.13;1310566;22;20003;-74
2021/03/03 00:06:51;;;;;;;33.90;23.95;;;;;;;2.40;88.64;97283.41;1304099;22;20046;-75
2021/03/03 00:07:21;;;;;;;34.58;21.95;;;;;;;2.41;88.60;97287.63;1304127;22;19996;-74
2021/03/03 00:07:52;;;;;;;31.40;21.60;;;;;;;2.41;88.19;97287.63;1303936;22;19999;-75
2021/03/03 00:08:22;;;;;;;32.65;22.67;;;;;;;2.44;87.15;97282.88;1303973;22;20044;-76
2021/03/03 00:08:54;;;;;;;37.03;22.30;;;;;;;2.43;87.95;97285.66;1297611;22;20109;-75
2021/03/03 00:09:24;;;;;;;32.38;21.75;;;;;;;2.43;87.63;97285.66;1285278;23;20051;-76
2021/03/03 00:09:55;;;;;;;34.78;21.80;;;;;;;2.41;87.86;97290.25;1285118;23;19996;-76
2021/03/03 00:10:25;;;;;;;30.90;21.55;;;;;;;2.41;88.09;97288.47;1285855;22;20001;-75
2021/03/03 00:10:56;;;;;;;29.50;21.10;;;;;;;2.40;87.36;97286.00;1297944;22;20007;-76
2021/03/03 00:11:27;;;;;;;33.75;23.20;;;;;;;2.39;87.06;97287.00;1304508;22;20002;-76
2021/03/03 00:11:57;;;;;;;33.85;22.48;;;;;;;2.39;87.92;97282.59;1304508;22;20002;-76
2021/03/03 00:12:29;;;;;;;34.35;21.23;;;;;;;2.35;87.40;97276.84;1303920;22;20435;-76
2021/03/03 00:12:59;;;;;;;36.65;22.23;;;;;;;2.40;88.03;97291.25;1297417;22;19996;-75
2021/03/03 00:13:30;;;;;;;29.83;21.45;;;;;;;2.41;86.67;97279.78;1291181;23;20445;-76
2021/03/03 00:14:00;;;;;;;31.50;20.27;;;;;;;2.45;86.03;97281.88;1291419;22;19992;-76
2021/03/03 00:14:32;;;;;;;33.58;22.27;;;;;;;2.48;85.91;97283.34;1296842;22;20492;-75
2021/03/03 00:15:03;;;;;;;32.55;21.85;;;;;;;2.47;86.00;97286.94;1303876;22;20003;-76
2021/03/03 00:15:33;;;;;;;33.30;21.08;;;;;;;2.44;85.78;97287.28;1304338;22;19999;-77
2021/03/03 00:16:04;;;;;;;31.50;20.85;;;;;;;2.43;85.56;97278.63;1303868;22;20425;-75
2021/03/03 00:16:34;;;;;;;29.52;21.73;;;;;;;2.39;85.54;97276.53;1303985;22;20407;-75
2021/03/03 00:17:05;;;;;;;30.23;21.10;;;;;;;2.42;85.38;97278.81;1303994;22;19995;-75
2021/03/03 00:17:35;;;;;;;31.13;21.38;;;;;;;2.44;85.19;97284.69;1303005;22;20007;-75
2021/03/03 00:18:05;;;;;;;28.75;21.15;;;;;;;2.35;86.73;97282.09;1304413;22;20065;-75
2021/03/03 00:18:36;;;;;;;30.23;20.30;;;;;;;2.31;86.17;97275.56;1304248;22;20105;-75
2021/03/03 00:19:06;;;;;;;31.55;21.80;;;;;;;2.33;85.84;97281.44;1304154;22;20010;-75
2021/03/03 00:19:38;;;;;;;31.63;21.50;;;;;;;2.32;85.83;97285.03;1304344;22;19995;-75
2021/03/03 00:20:09;;;;;;;35.78;20.92;;;;;;;2.35;85.51;97276.03;1303409;22;20413;-75
2021/03/03 00:20:39;;;;;;;29.90;21.67;;;;;;;2.32;85.88;97282.44;1303975;22;19999;-76
2021/03/03 00:21:09;;;;;;;34.03;20.13;;;;;;;2.33;85.69;97278.00;1304099;22;20006;-75
2021/03/03 00:21:40;;;;;;;34.55;22.88;;;;;;;2.28;85.46;97275.91;1304053;22;19999;-78
2021/03/03 00:22:10;;;;;;;32.85;20.92;;;;;;;2.33;85.43;97278.81;1303997;22;19995;-76
2021/03/03 00:22:41;;;;;;;33.13;22.10;;;;;;;2.34;87.13;97280.44;1304096;22;19995;-76
2021/03/03 00:23:11;;;;;;;31.48;21.63;;;;;;;2.34;86.83;97283.06;1304358;22;20052;-76
2021/03/03 00:23:42;;;;;;;30.67;20.88;;;;;;;2.23;85.83;97272.97;1304275;22;19995;-76
2021/03/03 00:24:12;;;;;;;29.92;21.48;;;;;;;2.21;85.74;97280.16;1304456;22;19991;-76
2021/03/03 00:24:43;;;;;;;32.83;20.30;;;;;;;2.18;85.93;97280.50;1304245;22;20000;-75
2021/03/03 00:25:13;;;;;;;30.70;20.48;;;;;;;2.25;85.69;97286.72;1304413;22;19987;-75
2021/03/03 00:25:44;;;;;;;35.50;20.98;;;;;;;2.23;86.15;97287.84;1304154;22;19995;-76
2021/03/03 00:26:14;;;;;;;33.15;20.83;;;;;;;2.22;85.85;97286.22;1304498;22;20431;-76
2021/03/03 00:26:45;;;;;;;32.53;20.10;;;;;;;2.28;85.43;97289.00;1304284;22;20033;-76
2021/03/03 00:27:15;;;;;;;29.55;20.95;;;;;;;2.24;85.37;97281.63;1304317;22;20401;-75
2021/03/03 00:27:46;;;;;;;29.33;20.20;;;;;;;2.25;85.18;97281.47;1304282;22;20011;-76
2021/03/03 00:28:16;;;;;;;32.17;20.13;;;;;;;2.31;85.24;97286.03;1304402;22;20066;-76
2021/03/03 00:28:46;;;;;;;33.53;20.90;;;;;;;2.30;86.23;97287.00;1304407;22;20405;-75
2021/03/03 00:29:17;;;;;;;34.97;20.80;;;;;;;2.26;85.44;97284.91;1304140;22;19991;-76
2021/03/03 00:29:47;;;;;;;31.25;20.23;;;;;;;2.30;85.14;97287.00;1304142;22;20060;-76
2021/03/03 00:30:18;;;;;;;29.95;20.48;;;;;;;2.30;85.97;97294.88;1304291;22;19991;-76
2021/03/03 00:30:48;;;;;;;29.65;21.17;;;;;;;2.34;86.51;97290.91;1304204;22;20038;-75
2021/03/03 00:31:19;;;;;;;27.60;19.13;;;;;;;2.34;84.99;97282.25;1304179;22;19991;-76
2021/03/03 00:31:49;;;;;;;28.83;19.60;;;;;;;2.28;85.96;97291.59;1302859;22;20003;-76
2021/03/03 00:32:20;;;;;;;30.88;21.27;;;;;;;2.23;85.67;97278.19;1303923;22;19991;-75
2021/03/03 00:32:50;;;;;;;27.90;19.83;;;;;;;2.25;84.95;97283.25;1297303;22;20000;-76
2021/03/03 00:33:20;;;;;;;30.15;19.85;;;;;;;2.21;85.36;97284.59;1297485;22;19992;-76
2021/03/03 00:33:51;;;;;;;29.63;19.55;;;;;;;2.20;85.86;97286.38;1303698;22;20000;-75
2021/03/03 00:34:21;;;;;;;28.23;19.63;;;;;;;2.22;85.33;97280.97;1303911;22;19992;-75
2021/03/03 00:34:52;;;;;;;29.88;20.42;;;;;;;2.23;85.85;97293.06;1303865;22;20007;-76
2021/03/03 00:35:22;;;;;;;30.73;19.88;;;;;;;2.18;85.69;97280.50;1297515;22;19988;-75
2021/03/03 00:35:53;;;;;;;33.95;20.90;;;;;;;2.19;86.57;97297.03;1297369;22;19999;-76
2021/03/03 00:36:23;;;;;;;30.27;19.90;;;;;;;2.20;85.90;97290.81;1297464;22;20019;-76
2021/03/03 00:36:54;;;;;;;28.73;19.63;;;;;;;2.20;85.52;97280.34;1303819;22;20347;-75
2021/03/03 00:37:24;;;;;;;26.73;19.20;;;;;;;2.19;86.14;97283.94;1304378;22;20285;-76
2021/03/03 00:37:55;;;;;;;31.63;20.33;;;;;;;2.17;86.52;97281.50;1304198;22;20004;-75
2021/03/03 00:38:25;;;;;;;28.90;20.38;;;;;;;2.20;86.73;97275.91;1304205;22;19999;-75
2021/03/03 00:38:56;;;;;;;32.28;20.65;;;;;;;2.21;86.50;97276.75;1304375;22;19995;-76
2021/03/03 00:39:27;;;;;;;25.10;18.75;;;;;;;2.17;85.37;97286.72;1304166;22;20061;-76
2021/03/03 00:39:57;;;;;;;33.65;20.45;;;;;;;2.14;85.41;97284.44;1304219;22;20022;-76
2021/03/03 00:40:27;;;;;;;31.88;20.60;;;;;;;2.11;85.40;97279.53;1304235;22;20006;-76
2021/03/03 00:40:58;;;;;;;29.25;18.73;;;;;;;2.13;85.86;97280.22;1304135;22;20026;-76
2021/03/03 00:41:28;;;;;;;32.40;21.45;;;;;;;2.16;87.15;97277.25;1304227;22;19999;-76
2021/03/03 00:41:59;;;;;;;30.95;20.85;;;;;;;2.13;86.45;97274.13;1303788;22;20420;-76
2021/03/03 00:42:29;;;;;;;27.38;19.52;;;;;;;2.09;86.36;97278.06;1303842;22;19999;-76
2021/03/03 00:43:00;;;;;;;27.95;19.15;;;;;;;2.15;85.94;97286.09;1303784;22;20012;-76
2021/03/03 00:43:30;;;;;;;31.25;20.08;;;;;;;2.08;85.47;97279.88;1303711;22;20003;-75
2021/03/03 00:44:00;;;;;;;29.95;19.63;;;;;;;2.11;85.91;97279.53;1304158;22;19995;-76
2021/03/03 00:44:31;;;;;;;27.55;20.23;;;;;;;2.05;85.42;97281.03;1304268;22;20003;-76
2021/03/03 00:45:04;;;;;;;26.67;19.35;;;;;;;2.11;87.15;97279.53;1304432;22;20010;-76
2021/03/03 00:45:35;;;;;;;27.95;18.85;;;;;;;2.15;85.68;97280.84;1307848;22;20003;-76
2021/03/03 00:46:05;;;;;;;28.80;21.08;;;;;;;2.18;85.93;97284.94;1304339;22;19995;-75
2021/03/03 00:46:36;;;;;;;33.95;20.60;;;;;;;2.13;85.13;97274.97;1304163;22;20003;-75
2021/03/03 00:47:06;;;;;;;27.80;18.92;;;;;;;2.14;85.05;97281.84;1304062;22;20433;-75
2021/03/03 00:47:36;;;;;;;34.65;20.25;;;;;;;2.17;84.87;97275.44;1304235;22;20007;-75
2021/03/03 00:48:07;;;;;;;33.50;20.60;;;;;;;2.08;85.36;97276.44;1303454;22;20003;-75
2021/03/03 00:48:38;;;;;;;30.08;19.17;;;;;;;2.11;85.40;97278.72;1304236;22;20003;-75
2021/03/03 00:49:08;;;;;;;36.95;19.85;;;;;;;2.09;85.13;97278.88;1303831;22;20003;-75
2021/03/03 00:49:38;;;;;;;29.40;19.38;;;;;;;2.15;86.64;97277.41;1303807;22;20003;-75
2021/03/03 00:50:09;;;;;;;30.83;19.75;;;;;;;2.12;85.17;97281.16;1303840;22;19999;-76
2021/03/03 00:50:39;;;;;;;29.10;19.80;;;;;;;2.11;85.06;97270.88;1303691;22;20003;-76
2021/03/03 00:51:10;;;;;;;34.10;20.10;;;;;;;2.09;85.07;97276.28;1304243;22;20309;-75
2021/03/03 00:51:40;;;;;;;28.13;19.58;;;;;;;2.11;84.77;97270.88;1304290;22;20433;-76
2021/03/03 00:52:11;;;;;;;27.10;17.85;;;;;;;2.09;84.74;97276.28;1303610;22;20379;-75
2021/03/03 00:52:41;;;;;;;28.95;18.52;;;;;;;1.98;84.81;97268.78;1303843;22;20408;-75
2021/03/03 00:53:12;;;;;;;27.40;19.02;;;;;;;2.06;86.35;97271.38;1303890;22;20317;-76
2021/03/03 00:53:44;;;;;;;27.65;18.48;;;;;;;2.05;86.20;97267.13;1303880;22;19999;-76
2021/03/03 00:54:15;;;;;;;32.53;19.52;;;;;;;2.09;87.19;97268.44;1304320;22;19995;-75
2021/03/03 00:54:45;;;;;;;26.67;18.05;;;;;;;2.07;86.92;97262.56;1306142;22;19991;-76
2021/03/03 00:55:15;;;;;;;26.48;18.08;;;;;;;2.08;86.29;97264.19;1305891;22;20022;-76
2021/03/03 00:55:52;;;;;;;24.80;17.63;;;;;;;2.09;85.59;97268.44;1292533;23;20050;-76
2021/03/03 00:56:23;;;;;;;26.75;17.88;;;;;;;2.08;85.37;97263.38;1291166;23;20008;-76
2021/03/03 00:56:53;;;;;;;25.45;17.67;;;;;;;2.13;85.70;97272.38;1292508;22;20011;-76
2021/03/03 00:57:23;;;;;;;26.23;17.98;;;;;;;2.16;84.63;97272.03;1298898;22;20018;-75
2021/03/03 00:57:54;;;;;;;26.90;19.15;;;;;;;2.11;85.17;97269.06;1304248;22;19994;-76
2021/03/03 00:58:25;;;;;;;26.35;17.00;;;;;;;2.06;84.61;97281.84;1304119;22;20328;-76
2021/03/03 00:58:56;;;;;;;29.85;18.05;;;;;;;2.06;84.64;97276.63;1303978;22;19994;-76
2021/03/03 00:59:26;;;;;;;29.88;18.42;;;;;;;2.05;84.67;97280.22;1303846;22;20014;-75
2021/03/03 00:59:56;;;;;;;25.95;17.70;;;;;;;2.02;84.70;97254.41;1303925;22;20045;-75
2021/03/03 01:00:27;;;;;;;22.30;16.50;;;;;;;2.07;84.87;97280.03;1303768;22;20459;-75
2021/03/03 01:00:58;;;;;;;25.40;17.25;;;;;;;2.00;85.68;97274.66;1304344;22;20044;-75
2021/03/03 01:01:29;;;;;;;26.40;18.45;;;;;;;1.96;84.78;97276.78;1304166;22;20477;-75
2021/03/03 01:01:59;;;;;;;26.25;17.98;;;;;;;2.04;84.37;97273.34;1304184;22;20424;-74
2021/03/03 01:02:29;;;;;;;27.35;18.17;;;;;;;2.07;84.31;97278.25;1304329;22;20003;-75
2021/03/03 01:03:00;;;;;;;27.65;18.08;;;;;;;2.04;84.67;97273.34;1304377;22;20101;-75
2021/03/03 01:03:30;;;;;;;28.27;18.75;;;;;;;2.01;85.55;97273.66;1304229;22;20056;-75
2021/03/03 01:04:01;;;;;;;27.63;17.95;;;;;;;2.05;84.63;97269.75;1304232;22;20007;-75
2021/03/03 01:04:31;;;;;;;24.92;17.23;;;;;;;2.07;84.39;97277.44;1303657;22;20007;-75
2021/03/03 01:05:02;;;;;;;26.73;18.05;;;;;;;2.04;85.84;97282.00;1303828;22;19999;-75
2021/03/03 01:05:32;;;;;;;29.35;17.25;;;;;;;2.03;86.69;97276.97;1297343;22;20393;-75
2021/03/03 01:06:02;;;;;;;26.58;19.13;;;;;;;2.03;86.83;97274.34;1297538;22;19999;-75
2021/03/03 01:06:33;;;;;;;28.88;18.40;;;;;;;2.01;86.36;97271.06;1303804;22;20003;-75
2021/03/03 01:07:05;;;;;;;28.17;18.00;;;;;;;1.97;86.22;97265.34;1303831;22;19999;-74
2021/03/03 01:07:36;;;;;;;28.42;18.20;;;;;;;2.01;85.17;97269.28;1304111;22;20336;-74
2021/03/03 01:08:07;;;;;;;24.55;17.67;;;;;;;2.00;84.95;97267.63;1304183;22;20014;-74
2021/03/03 01:08:37;;;;;;;29.38;17.67;;;;;;;1.96;84.67;97268.13;1304259;22;20101;-74
2021/03/03 01:09:08;;;;;;;27.38;18.27;;;;;;;2.02;84.89;97264.88;1304197;22;19999;-74
2021/03/03 01:09:38;;;;;;;26.73;18.23;;;;;;;2.04;84.21;97268.13;1304157;22;19999;-75
2021/03/03 01:10:09;;;;;;;28.52;18.08;;;;;;;2.02;84.89;97267.47;1304076;22;20003;-75
2021/03/03 01:10:39;;;;;;;24.30;17.58;;;;;;;1.92;85.86;97264.22;1304303;22;20074;-79
2021/03/03 01:11:09;;;;;;;26.83;18.70;;;;;;;1.93;84.97;97264.06;1304140;22;20007;-78
2021/03/03 01:11:40;;;;;;;25.35;18.27;;;;;;;1.93;84.57;97268.47;1304284;22;20007;-78
2021/03/03 01:12:10;;;;;;;26.38;18.23;;;;;;;1.93;84.44;97264.06;1304307;22;20007;-79
2021/03/03 01:12:41;;;;;;;27.40;17.67;;;;;;;1.98;86.31;97263.53;1304330;22;20007;-78
2021/03/03 01:13:11;;;;;;;25.73;17.30;;;;;;;1.99;84.92;97260.75;1304182;22;20010;-79
2021/03/03 01:13:42;;;;;;;24.92;17.23;;;;;;;1.95;84.18;97258.66;1304251;22;20003;-78
2021/03/03 01:14:12;;;;;;;27.00;18.02;;;;;;;1.89;84.37;97261.91;1304473;22;20071;-78
2021/03/03 01:14:42;;;;;;;28.58;17.33;;;;;;;1.92;84.76;97265.03;1304331;22;20308;-79
2021/03/03 01:15:13;;;;;;;26.70;17.70;;;;;;;1.86;84.46;97259.66;1304320;22;20416;-79
2021/03/03 01:15:44;;;;;;;27.20;17.65;;;;;;;1.82;84.65;97260.97;1303923;22;19995;-79
2021/03/03 01:16:14;;;;;;;28.23;18.45;;;;;;;1.85;86.35;97263.25;1303974;22;20068;-79
2021/03/03 01:16:50;;;;;;;24.58;17.65;;;;;;;1.74;85.92;97261.78;1303885;22;19991;-79
2021/03/03 01:17:20;;;;;;;34.00;17.25;;;;;;;1.77;85.21;97266.69;1303932;22;19999;-79
2021/03/03 01:17:54;;;;;;;29.85;17.05;;;;;;;1.79;85.58;97258.69;1304009;22;20002;-79
2021/03/03 01:18:24;;;;;;;23.10;16.00;;;;;;;1.82;85.16;97261.78;1299329;22;19996;-79
2021/03/03 01:18:55;;;;;;;24.33;16.75;;;;;;;1.89;85.20;97270.59;1303855;22;20418;-79
2021/03/03 01:19:25;;;;;;;25.33;17.25;;;;;;;1.91;84.65;97257.38;1303655;22;19995;-79
2021/03/03 01:19:56;;;;;;;25.60;16.55;;;;;;;1.97;84.45;97261.91;1304101;22;19991;-79
2021/03/03 01:20:28;;;;;;;28.10;17.88;;;;;;;1.95;85.38;97259.47;1303277;22;20062;-79
2021/03/03 01:20:58;;;;;;;27.08;17.15;;;;;;;1.91;85.45;97262.59;1303821;22;20003;-78
2021/03/03 01:21:30;;;;;;;23.23;16.55;;;;;;;1.88;84.61;97257.69;1303874;22;19987;-79
2021/03/03 01:22:01;;;;;;;22.27;16.88;;;;;;;1.84;84.56;97261.63;1304177;22;20049;-77
2021/03/03 01:22:31;;;;;;;28.10;16.58;;;;;;;1.90;84.28;97260.97;1304189;22;20420;-78
2021/03/03 01:23:01;;;;;;;24.90;16.98;;;;;;;1.94;84.09;97270.09;1306531;22;19999;-77
2021/03/03 01:23:32;;;;;;;26.92;17.60;;;;;;;1.91;85.36;97262.59;1304387;22;19995;-77
2021/03/03 01:24:02;;;;;;;27.67;17.90;;;;;;;1.83;84.57;97267.84;1304550;22;20065;-77
2021/03/03 01:24:33;;;;;;;27.17;16.83;;;;;;;1.82;84.30;97253.13;1304565;22;20007;-77
2021/03/03 01:25:05;;;;;;;25.92;17.35;;;;;;;1.84;84.47;97265.03;1304447;22;20413;-77
2021/03/03 01:25:36;;;;;;;23.48;16.80;;;;;;;1.91;84.19;97270.44;1304423;22;20003;-77
2021/03/03 01:26:06;;;;;;;23.05;16.33;;;;;;;1.92;84.15;97269.47;1305801;22;20007;-76
2021/03/03 01:26:36;;;;;;;24.77;16.48;;;;;;;1.95;83.95;97271.72;1309504;22;20011;-77
2021/03/03 01:27:07;;;;;;;21.98;15.80;;;;;;;1.85;83.88;97268.47;1309352;22;19999;-77
2021/03/03 01:27:37;;;;;;;23.67;16.40;;;;;;;1.84;83.85;97274.69;1309549;22;20002;-75
2021/03/03 01:28:09;;;;;;;22.17;16.67;;;;;;;1.85;84.17;97269.28;1309549;22;20293;-77
2021/03/03 01:28:40;;;;;;;30.23;16.42;;;;;;;1.87;84.17;97267.31;1309419;22;19991;-77
2021/03/03 01:29:10;;;;;;;29.00;16.65;;;;;;;1.84;84.63;97262.44;1309751;22;19999;-77
2021/03/03 01:29:40;;;;;;;22.25;16.15;;;;;;;1.77;84.38;97267.50;1309197;22;19999;-77
2021/03/03 01:30:12;;;;;;;26.42;16.75;;;;;;;1.70;84.45;97260.50;1309451;22;20003;-77
2021/03/03 01:30:42;;;;;;;23.23;16.88;;;;;;;1.68;84.51;97255.44;1307572;22;19991;-78
2021/03/03 01:31:13;;;;;;;23.42;17.27;;;;;;;1.77;86.22;97262.25;1304397;22;19996;-77
2021/03/03 01:31:43;;;;;;;26.20;15.43;;;;;;;1.79;86.67;97262.13;1305040;22;20006;-78
2021/03/03 01:32:14;;;;;;;22.98;15.98;;;;;;;1.75;84.91;97259.00;1304467;22;20005;-77
2021/03/03 01:32:44;;;;;;;23.80;16.17;;;;;;;1.79;84.50;97256.91;1304440;22;20436;-77
2021/03/03 01:33:28;;;;;;;26.42;16.55;;;;;;;1.86;84.02;97260.47;1304372;22;20011;-78
2021/03/03 01:33:58;;;;;;;24.10;16.52;;;;;;;1.82;84.68;97253.13;1304456;22;20435;-77
2021/03/03 01:34:29;;;;;;;23.63;16.05;;;;;;;1.81;85.96;97254.94;1304615;22;20003;-77
2021/03/03 01:34:59;;;;;;;26.80;16.35;;;;;;;1.83;84.43;97247.72;1304282;22;19995;-78
2021/03/03 01:35:30;;;;;;;24.90;15.23;;;;;;;1.85;84.10;97250.19;1304296;22;19999;-77
2021/03/03 01:36:00;;;;;;;21.95;15.20;;;;;;;1.88;83.82;97252.44;1304183;22;20038;-77
2021/03/03 01:36:31;;;;;;;24.40;16.35;;;;;;;1.87;83.75;97256.88;1303882;22;20007;-77
2021/03/03 01:37:01;;;;;;;22.75;16.20;;;;;;;1.82;83.88;97258.34;1303710;22;20000;-76
2021/03/03 01:37:31;;;;;;;22.15;15.38;;;;;;;1.84;84.07;97256.38;1297692;22;19999;-80
2021/03/03 01:38:03;;;;;;;25.80;15.57;;;;;;;1.77;83.80;97251.00;1297901;22;19998;-80
2021/03/03 01:38:33;;;;;;;23.90;15.80;;;;;;;1.70;84.27;97250.84;1303920;22;20010;-76
2021/03/03 01:39:04;;;;;;;21.65;16.05;;;;;;;1.67;84.38;97250.38;1303713;22;19999;-77
2021/03/03 01:39:34;;;;;;;22.05;15.32;;;;;;;1.57;84.47;97250.53;1304171;22;20027;-77
2021/03/03 01:40:05;;;;;;;20.10;15.32;;;;;;;1.59;84.76;97253.81;1304154;22;20002;-77
2021/03/03 01:40:35;;;;;;;26.67;16.25;;;;;;;1.66;84.38;97260.00;1304282;22;20110;-77
2021/03/03 01:41:06;;;;;;;19.70;14.98;;;;;;;1.73;84.26;97260.16;1303835;22;20432;-78
2021/03/03 01:41:36;;;;;;;27.15;16.25;;;;;;;1.60;84.46;97255.44;1304036;22;20003;-77
2021/03/03 01:42:06;;;;;;;22.35;15.30;;;;;;;1.66;84.58;97257.41;1297299;22;20003;-78
2021/03/03 01:42:37;;;;;;;25.98;15.93;;;;;;;1.68;84.72;97258.06;1297493;22;20004;-77
2021/03/03 01:43:07;;;;;;;22.20;15.23;;;;;;;1.65;84.88;97257.53;1303711;22;20019;-77
2021/03/03 01:43:38;;;;;;;25.17;16.33;;;;;;;1.56;84.91;97258.56;1303881;22;20010;-77
2021/03/03 01:44:08;;;;;;;24.90;16.30;;;;;;;1.62;84.73;97257.88;1304176;22;20347;-77
2021/03/03 01:44:39;;;;;;;23.55;15.90;;;;;;;1.65;86.52;97260.16;1304271;22;19999;-75
2021/03/03 01:45:10;;;;;;;25.23;15.32;;;;;;;1.63;85.72;97260.31;1303589;22;19999;-75
2021/03/03 01:45:40;;;;;;;21.10;15.95;;;;;;;1.60;85.22;97260.66;1304014;22;20462;-74
2021/03/03 01:46:10;;;;;;;23.17;16.67;;;;;;;1.66;85.36;97254.78;1303747;22;20010;-76
2021/03/03 01:46:41;;;;;;;21.77;15.30;;;;;;;1.71;85.12;97257.72;1303742;22;19995;-75
2021/03/03 01:47:11;;;;;;;24.98;15.60;;;;;;;1.60;84.56;97255.44;1304125;22;19995;-75
2021/03/03 01:47:42;;;;;;;26.67;16.98;;;;;;;1.66;84.51;97257.41;1304184;22;19991;-75
2021/03/03 01:48:12;;;;;;;24.40;16.45;;;;;;;1.64;84.23;97259.34;1304023;22;19996;-75
2021/03/03 01:48:42;;;;;;;23.77;15.57;;;;;;;1.65;84.53;97258.34;1304130;22;19999;-75
2021/03/03 01:49:13;;;;;;;22.85;15.85;;;;;;;1.65;84.65;97257.53;1304038;22;19995;-75
2021/03/03 01:49:43;;;;;;;23.13;14.98;;;;;;;1.66;84.34;97252.19;1304532;22;19999;-80
2021/03/03 01:50:14;;;;;;;22.67;16.10;;;;;;;1.64;85.70;97256.72;1303900;22;19995;-80
2021/03/03 01:50:44;;;;;;;23.63;15.90;;;;;;;1.64;84.99;97256.72;1291252;23;20096;-80
2021/03/03 01:51:15;;;;;;;21.20;14.20;;;;;;;1.56;85.19;97253.31;1291224;23;20382;-81
2021/03/03 01:51:45;;;;;;;25.15;16.60;;;;;;;1.63;86.81;97265.56;1291443;22;20007;-80
2021/03/03 01:52:16;;;;;;;22.77;16.75;;;;;;;1.66;86.46;97260.00;1297847;22;19999;-79
2021/03/03 01:52:46;;;;;;;21.60;14.85;;;;;;;1.65;86.32;97258.34;1310431;22;20408;-82
2021/03/03 01:53:17;;;;;;;21.38;14.82;;;;;;;1.64;86.07;97259.34;1304585;22;19995;-82
2021/03/03 01:53:47;;;;;;;22.60;15.02;;;;;;;1.70;85.30;97255.28;1304025;22;19995;-83
2021/03/03 01:54:18;;;;;;;22.42;14.48;;;;;;;1.73;84.10;97255.75;1303965;22;19995;-82
2021/03/03 01:54:48;;;;;;;25.88;16.35;;;;;;;1.71;84.43;97257.72;1303876;22;20003;-82
2021/03/03 01:55:18;;;;;;;20.45;14.65;;;;;;;1.62;84.54;97257.88;1303892;22;19995;-83
2021/03/03 01:55:49;;;;;;;22.13;16.45;;;;;;;1.57;85.56;97255.78;1297716;22;20000;-82
2021/03/03 01:56:19;;;;;;;23.10;15.40;;;;;;;1.63;85.63;97260.31;1297426;22;20087;-82
2021/03/03 01:56:50;;;;;;;25.55;15.52;;;;;;;1.62;86.39;97260.50;1297422;22;20310;-83
2021/03/03 01:57:20;;;;;;;21.98;15.75;;;;;;;1.59;86.37;97253.81;1297670;22;20004;-82
2021/03/03 01:57:51;;;;;;;22.63;16.20;;;;;;;1.58;86.55;97254.78;1297542;22;19984;-83
2021/03/03 01:58:21;;;;;;;20.60;15.02;;;;;;;1.60;86.98;97254.63;1291479;22;19996;-82
2021/03/03 01:58:51;;;;;;;23.95;17.15;;;;;;;1.54;86.09;97256.09;1297811;22;20364;-83
2021/03/03 01:59:22;;;;;;;22.65;16.58;;;;;;;1.51;86.75;97251.19;1297688;22;20463;-79
2021/03/03 01:59:52;;;;;;;23.25;16.05;;;;;;;1.53;85.98;97259.66;1303723;22;20015;-76
2021/03/03 02:00:23;;;;;;;21.35;15.77;;;;;;;1.49;86.12;97250.53;1304072;22;19999;-76
2021/03/03 02:00:53;;;;;;;21.40;16.00;;;;;;;1.50;85.43;97252.16;1303644;22;19995;-76
2021/03/03 02:01:24;;;;;;;22.35;15.55;;;;;;;1.52;85.75;97246.78;1303717;22;19995;-76
2021/03/03 02:01:54;;;;;;;24.00;16.67;;;;;;;1.55;86.23;97251.69;1303804;22;20298;-76
2021/03/03 02:02:25;;;;;;;20.20;15.32;;;;;;;1.59;87.18;97261.63;1303644;22;19995;-76
2021/03/03 02:02:57;;;;;;;24.48;16.58;;;;;;;1.57;86.17;97257.56;1303982;22;20409;-77
2021/03/03 02:03:28;;;;;;;21.90;16.35;;;;;;;1.60;86.68;97246.78;1302903;22;20007;-78
2021/03/03 02:03:59;;;;;;;24.17;16.77;;;;;;;1.60;86.54;97255.44;1297341;22;20310;-77
2021/03/03 02:04:29;;;;;;;27.17;16.40;;;;;;;1.57;86.58;97255.78;1290993;23;20074;-75
2021/03/03 02:04:59;;;;;;;26.20;15.13;;;;;;;1.58;86.23;97257.41;1290955;22;20011;-75
2021/03/03 02:05:30;;;;;;;22.48;15.70;;;;;;;1.57;85.71;97244.50;1291135;22;20003;-75
2021/03/03 02:06:02;;;;;;;20.67;15.05;;;;;;;1.60;86.13;97257.22;1291119;22;20004;-74
2021/03/03 02:06:46;;;;;;;28.98;15.82;;;;;;;1.57;86.30;97261.00;1286352;23;20000;-74
2021/03/03 02:07:26;;;;;;;22.02;15.77;;;;;;;1.57;86.36;97263.59;1281530;23;20005;-75
2021/03/03 02:08:28;;;;;;;25.77;16.40;;;;;;;1.56;85.34;97259.38;1283758;23;20019;-76
2021/03/03 02:09:07;;;;;;;24.80;16.08;;;;;;;1.58;86.43;97257.41;1293143;22;20031;-75
2021/03/03 02:09:46;;;;;;;22.27;15.73;;;;;;;1.57;85.08;97250.53;1293079;22;20004;-76
2021/03/03 02:10:20;;;;;;;24.60;16.33;;;;;;;1.60;86.52;97260.66;1291124;23;20226;-76
2021/03/03 02:11:21;;;;;;;21.25;15.30;;;;;;;1.62;86.63;97261.31;1289350;23;20078;-80
2021/03/03 02:12:23;;;;;;;23.77;15.75;;;;;;;1.59;86.82;97263.44;1298191;22;20079;-80
2021/03/03 02:13:00;;;;;;;21.38;15.68;;;;;;;1.59;86.73;97260.81;1285211;22;20005;-79
2021/03/03 02:13:38;;;;;;;24.55;15.20;;;;;;;1.53;86.33;97249.22;1297455;22;20371;-79
2021/03/03 02:14:10;;;;;;;24.33;15.80;;;;;;;1.56;86.73;97250.72;1291617;23;20078;-77
2021/03/03 02:14:43;;;;;;;26.00;15.55;;;;;;;1.56;86.36;97256.75;1281856;23;20032;-79
2021/03/03 02:15:13;;;;;;;24.15;16.27;;;;;;;1.54;86.52;97250.03;1275213;23;20017;-79
2021/03/03 02:15:44;;;;;;;24.67;15.88;;;;;;;1.50;85.77;97246.13;1272227;23;20025;-77
2021/03/03 02:16:15;;;;;;;22.17;15.07;;;;;;;1.49;85.11;97255.75;1272250;23;20021;-77
2021/03/03 02:16:45;;;;;;;23.33;16.40;;;;;;;1.47;87.14;97247.28;1273119;23;20005;-77
2021/03/03 02:17:16;;;;;;;24.58;16.30;;;;;;;1.40;86.92;97247.09;1285214;22;19997;-77
2021/03/03 02:17:46;;;;;;;27.92;16.50;;;;;;;1.41;87.03;97245.31;1290846;23;20016;-77
2021/03/03 02:18:17;;;;;;;22.73;15.95;;;;;;;1.42;87.12;97249.53;1291035;23;19988;-78
2021/03/03 02:18:47;;;;;;;20.17;15.30;;;;;;;1.45;87.49;97251.84;1284621;23;20028;-77
2021/03/03 02:19:21;;;;;;;23.38;16.00;;;;;;;1.43;87.09;97248.59;1291010;23;20043;-77
2021/03/03 02:19:51;;;;;;;22.65;15.75;;;;;;;1.41;87.12;97245.31;1279164;23;20081;-76
2021/03/03 02:20:24;;;;;;;23.55;15.88;;;;;;;1.40;87.03;97249.72;1285575;23;20047;-80
2021/03/03 02:21:26;;;;;;;21.67;15.25;;;;;;;1.41;86.66;97247.91;1292212;22;20380;-76
2021/03/03 02:22:26;;;;;;;21.08;14.60;;;;;;;1.42;86.63;97252.16;1297300;22;20061;-76
2021/03/03 02:23:14;;;;;;;21.70;15.45;;;;;;;1.40;86.76;97254.94;1284286;23;20096;-76
2021/03/03 02:23:58;;;;;;;18.83;13.15;;;;;;;1.41;85.81;97247.91;1302830;22;20387;-76
2021/03/03 02:24:30;;;;;;;24.02;15.07;;;;;;;1.44;86.50;97255.44;1303708;22;19999;-77
2021/03/03 02:25:18;;;;;;;23.65;15.63;;;;;;;1.43;85.54;97251.22;1297225;22;19991;-77
2021/03/03 02:25:49;;;;;;;19.50;14.32;;;;;;;1.48;85.69;97250.69;1284706;23;20345;-77
2021/03/03 02:26:20;;;;;;;21.90;14.48;;;;;;;1.49;85.31;97245.31;1283745;23;19996;-77
2021/03/03 02:26:53;;;;;;;20.55;14.85;;;;;;;1.52;86.34;97250.19;1282505;23;20480;-77